Benjamas Naree — 9V9405 — position and weather

sailwx.info

Track history (hours):
 
Tides and Currents Weather Stations Pressure Air Temp Water Temp Dewpoint Dewpoint Depression Visibility Wind Speed Wind Dir Waves Ship Positions

Benjamas Naree

Last reported at 2016-Jul-13 01:10 UTC. Time now 2016-Jul-29 12:04 UTC.
Position N 01°57' E 102°17'.
Warning: this ship's position is 16 days out of date.

Length 181 m; draft 9.6 m.

Type: Cargo ship. MMSI: 566377000.

Date/timePositionNaut miles runAvg speedWind from/ knotsBaromVisibWave heightAir tempDewpointWater temp
2016-Jul-13 01:10N 01°57' E 102°17'912.3
2016-Jul-13 00:28N 01°54' E 102°25'1111.8
2016-Jul-12 23:33N 01°49' E 102°34'7211.4
2016-Jul-12 17:16N 01°12' E 103°36'811.6
2016-Jul-12 16:32N 01°09' E 103°44'9 9.6
2016-Jul-12 15:33N 01°12' E 103°52'5 4.6
2016-Jul-12 14:33N 01°16' E 103°54'0 0.1
2016-Jul-12 13:33N 01°16' E 103°54'0 0.0
2016-Jul-12 12:32N 01°16' E 103°54'0 0.1
2016-Jul-12 11:33N 01°16' E 103°54'0 0.0
2016-Jul-12 10:33N 01°16' E 103°54'0 0.0
2016-Jul-12 09:33N 01°16' E 103°54'0 0.0
2016-Jul-12 08:32N 01°16' E 103°54'0 0.0
2016-Jul-12 07:33N 01°16' E 103°54'0 0.0
2016-Jul-12 06:33N 01°16' E 103°54'0 0.1
2016-Jul-12 05:33N 01°16' E 103°54'0 0.1
2016-Jul-12 04:33N 01°16' E 103°54'0 0.1
2016-Jul-12 03:33N 01°16' E 103°54'0 0.1
2016-Jul-12 02:33N 01°16' E 103°54'0 0.1
2016-Jul-12 01:33N 01°16' E 103°54'0 0.0
2016-Jul-12 00:33N 01°16' E 103°54'0 0.0
2016-Jul-11 23:33N 01°16' E 103°54'0 0.0
2016-Jul-11 22:33N 01°16' E 103°54'0 0.0
2016-Jul-11 21:33N 01°16' E 103°54'0 0.0
2016-Jul-11 20:33N 01°16' E 103°54'0 0.1
2016-Jul-11 19:33N 01°16' E 103°54'1 1.0
2016-Jul-11 18:33N 01°16' E 103°54'5 4.9
2016-Jul-11 17:33N 01°15' E 103°59'8 7.3
2016-Jul-11 16:31N 01°17' E 104°06'  
Track history (hours):
 
Tides and Currents Weather Stations Pressure Air Temp Water Temp Dewpoint Dewpoint Depression Visibility Wind Speed Wind Dir Waves Ship Positions

Benjamas Naree

Last reported at 2016-Jul-13 01:10 UTC. Time now 2016-Jul-29 12:04 UTC.
Position N 01°57' E 102°17'.
Warning: this ship's position is 16 days out of date.

Length 181 m; draft 9.6 m.

Type: Cargo ship. MMSI: 566377000.

Date/timePositionNaut miles runAvg speedWind from/ knotsBaromVisibWave heightAir tempDewpointWater temp
2016-Jul-13 01:10N 01°57' E 102°17'912.3
2016-Jul-13 00:28N 01°54' E 102°25'1111.8
2016-Jul-12 23:33N 01°49' E 102°34'7211.4
2016-Jul-12 17:16N 01°12' E 103°36'811.6
2016-Jul-12 16:32N 01°09' E 103°44'9 9.6
2016-Jul-12 15:33N 01°12' E 103°52'5 4.6
2016-Jul-12 14:33N 01°16' E 103°54'0 0.1
2016-Jul-12 13:33N 01°16' E 103°54'0 0.0
2016-Jul-12 12:32N 01°16' E 103°54'0 0.1
2016-Jul-12 11:33N 01°16' E 103°54'0 0.0
2016-Jul-12 10:33N 01°16' E 103°54'0 0.0
2016-Jul-12 09:33N 01°16' E 103°54'0 0.0
2016-Jul-12 08:32N 01°16' E 103°54'0 0.0
2016-Jul-12 07:33N 01°16' E 103°54'0 0.0
2016-Jul-12 06:33N 01°16' E 103°54'0 0.1
2016-Jul-12 05:33N 01°16' E 103°54'0 0.1
2016-Jul-12 04:33N 01°16' E 103°54'0 0.1
2016-Jul-12 03:33N 01°16' E 103°54'0 0.1
2016-Jul-12 02:33N 01°16' E 103°54'0 0.1
2016-Jul-12 01:33N 01°16' E 103°54'0 0.0
2016-Jul-12 00:33N 01°16' E 103°54'0 0.0
2016-Jul-11 23:33N 01°16' E 103°54'0 0.0
2016-Jul-11 22:33N 01°16' E 103°54'0 0.0
2016-Jul-11 21:33N 01°16' E 103°54'0 0.0
2016-Jul-11 20:33N 01°16' E 103°54'0 0.1
2016-Jul-11 19:33N 01°16' E 103°54'1 1.0
2016-Jul-11 18:33N 01°16' E 103°54'5 4.9
2016-Jul-11 17:33N 01°15' E 103°59'8 7.3
2016-Jul-11 16:31N 01°17' E 104°06'  

Dump ship's entire track history